sensor_id;sensor_type;location;lat;lon;timestamp;pressure;altitude;pressure_sealevel;temperature;humidity
57827;BME280;43656;57.746;11.780;2023-07-24T00:02:13;99822.22;;;17.69;100.00
57827;BME280;43656;57.746;11.780;2023-07-24T00:04:39;99822.72;;;17.61;100.00
57827;BME280;43656;57.746;11.780;2023-07-24T00:07:05;99817.31;;;17.71;100.00
57827;BME280;43656;57.746;11.780;2023-07-24T00:09:31;99808.59;;;17.49;100.00
57827;BME280;43656;57.746;11.780;2023-07-24T00:11:57;99806.41;;;17.51;100.00
57827;BME280;43656;57.746;11.780;2023-07-24T00:14:23;99793.91;;;17.70;100.00
57827;BME280;43656;57.746;11.780;2023-07-24T00:16:48;99790.63;;;17.53;100.00
57827;BME280;43656;57.746;11.780;2023-07-24T00:19:13;99789.56;;;17.59;100.00
57827;BME280;43656;57.746;11.780;2023-07-24T00:21:39;99784.66;;;17.66;100.00
57827;BME280;43656;57.746;11.780;2023-07-24T00:24:04;99775.13;;;17.74;100.00
57827;BME280;43656;57.746;11.780;2023-07-24T00:26:30;99770.78;;;17.63;100.00
57827;BME280;43656;57.746;11.780;2023-07-24T00:28:55;99766.66;;;17.34;100.00
57827;BME280;43656;57.746;11.780;2023-07-24T00:31:21;99754.16;;;17.33;100.00
57827;BME280;43656;57.746;11.780;2023-07-24T00:33:46;99738.41;;;17.51;100.00
57827;BME280;43656;57.746;11.780;2023-07-24T00:36:11;99750.34;;;17.45;100.00
57827;BME280;43656;57.746;11.780;2023-07-24T00:38:37;99734.88;;;17.45;100.00
57827;BME280;43656;57.746;11.780;2023-07-24T00:41:02;99736.78;;;17.50;100.00
57827;BME280;43656;57.746;11.780;2023-07-24T00:43:28;99730.78;;;17.43;100.00
57827;BME280;43656;57.746;11.780;2023-07-24T00:45:54;99738.16;;;17.52;100.00
57827;BME280;43656;57.746;11.780;2023-07-24T00:48:21;99726.44;;;17.52;100.00
57827;BME280;43656;57.746;11.780;2023-07-24T00:50:46;99699.78;;;17.33;100.00
57827;BME280;43656;57.746;11.780;2023-07-24T00:53:13;99719.09;;;17.52;100.00
57827;BME280;43656;57.746;11.780;2023-07-24T00:55:39;99721.53;;;17.74;100.00
57827;BME280;43656;57.746;11.780;2023-07-24T00:58:06;99723.19;;;17.70;100.00
57827;BME280;43656;57.746;11.780;2023-07-24T01:00:31;99722.09;;;17.66;100.00
57827;BME280;43656;57.746;11.780;2023-07-24T01:02:59;99711.47;;;17.65;100.00
57827;BME280;43656;57.746;11.780;2023-07-24T01:05:25;99717.75;;;17.60;100.00
57827;BME280;43656;57.746;11.780;2023-07-24T01:07:51;99704.94;;;17.76;100.00
57827;BME280;43656;57.746;11.780;2023-07-24T01:10:17;99703.31;;;17.70;100.00
57827;BME280;43656;57.746;11.780;2023-07-24T01:12:54;99690.81;;;17.69;100.00
57827;BME280;43656;57.746;11.780;2023-07-24T01:15:34;99682.66;;;17.64;100.00
57827;BME280;43656;57.746;11.780;2023-07-24T01:18:07;99669.31;;;17.57;100.00
57827;BME280;43656;57.746;11.780;2023-07-24T01:20:36;99680.72;;;17.64;100.00
57827;BME280;43656;57.746;11.780;2023-07-24T01:23:21;99667.13;;;17.64;100.00
57827;BME280;43656;57.746;11.780;2023-07-24T01:25:59;99666.34;;;17.48;100.00
57827;BME280;43656;57.746;11.780;2023-07-24T01:28:25;99654.06;;;17.61;100.00
57827;BME280;43656;57.746;11.780;2023-07-24T01:30:51;99658.72;;;17.66;100.00
57827;BME280;43656;57.746;11.780;2023-07-24T01:33:17;99657.38;;;17.78;100.00
57827;BME280;43656;57.746;11.780;2023-07-24T01:35:43;99640.19;;;17.68;100.00
57827;BME280;43656;57.746;11.780;2023-07-24T01:38:11;99673.94;;;17.72;100.00
57827;BME280;43656;57.746;11.780;2023-07-24T01:40:38;99664.69;;;17.83;100.00
57827;BME280;43656;57.746;11.780;2023-07-24T01:43:04;99650.03;;;17.79;100.00
57827;BME280;43656;57.746;11.780;2023-07-24T01:45:29;99651.63;;;17.65;100.00
57827;BME280;43656;57.746;11.780;2023-07-24T01:47:54;99636.41;;;17.69;100.00
57827;BME280;43656;57.746;11.780;2023-07-24T01:50:20;99636.16;;;17.50;100.00
57827;BME280;43656;57.746;11.780;2023-07-24T01:52:45;99622.53;;;17.50;100.00
57827;BME280;43656;57.746;11.780;2023-07-24T01:55:11;99610.03;;;17.59;100.00
57827;BME280;43656;57.746;11.780;2023-07-24T01:57:36;99647.53;;;17.72;100.00
57827;BME280;43656;57.746;11.780;2023-07-24T02:00:02;99627.44;;;17.68;100.00
57827;BME280;43656;57.746;11.780;2023-07-24T02:02:27;99628.00;;;17.40;100.00
57827;BME280;43656;57.746;11.780;2023-07-24T02:04:52;99633.97;;;17.57;100.00
57827;BME280;43656;57.746;11.780;2023-07-24T02:07:18;99624.41;;;17.65;100.00
57827;BME280;43656;57.746;11.780;2023-07-24T02:09:44;99621.44;;;17.76;100.00
57827;BME280;43656;57.746;11.780;2023-07-24T02:12:09;99622.53;;;17.50;100.00
57827;BME280;43656;57.746;11.780;2023-07-24T02:14:36;99617.63;;;17.77;100.00
57827;BME280;43656;57.746;11.780;2023-07-24T02:17:01;99617.34;;;17.89;100.00
57827;BME280;43656;57.746;11.780;2023-07-24T02:19:27;99602.88;;;17.94;100.00
57827;BME280;43656;57.746;11.780;2023-07-24T02:21:52;99608.06;;;17.95;100.00
57827;BME280;43656;57.746;11.780;2023-07-24T02:24:18;99617.06;;;17.86;100.00
57827;BME280;43656;57.746;11.780;2023-07-24T02:26:43;99611.34;;;17.87;100.00
57827;BME280;43656;57.746;11.780;2023-07-24T02:29:08;99615.72;;;17.88;100.00
57827;BME280;43656;57.746;11.780;2023-07-24T02:31:34;99603.19;;;17.92;100.00
57827;BME280;43656;57.746;11.780;2023-07-24T02:33:59;99605.56;;;18.04;100.00
57827;BME280;43656;57.746;11.780;2023-07-24T02:36:25;99595.19;;;18.11;100.00
57827;BME280;43656;57.746;11.780;2023-07-24T02:38:50;99599.53;;;18.17;100.00
57827;BME280;43656;57.746;11.780;2023-07-24T02:41:16;99595.44;;;18.20;100.00
57827;BME280;43656;57.746;11.780;2023-07-24T02:43:41;99594.59;;;18.24;100.00
57827;BME280;43656;57.746;11.780;2023-07-24T02:46:07;99591.09;;;18.19;100.00
57827;BME280;43656;57.746;11.780;2023-07-24T02:48:33;99594.44;;;18.05;100.00
57827;BME280;43656;57.746;11.780;2023-07-24T02:50:58;99587.88;;;18.06;100.00
57827;BME280;43656;57.746;11.780;2023-07-24T02:53:24;99592.59;;;17.75;100.00
57827;BME280;43656;57.746;11.780;2023-07-24T02:55:50;99587.38;;;17.94;100.00
57827;BME280;43656;57.746;11.780;2023-07-24T02:58:15;99580.56;;;18.02;100.00
57827;BME280;43656;57.746;11.780;2023-07-24T03:00:41;99575.97;;;17.92;100.00
57827;BME280;43656;57.746;11.780;2023-07-24T03:03:06;99583.28;;;17.97;100.00
57827;BME280;43656;57.746;11.780;2023-07-24T03:05:34;99569.66;;;18.02;100.00
57827;BME280;43656;57.746;11.780;2023-07-24T03:07:59;99540.38;;;17.68;100.00
57827;BME280;43656;57.746;11.780;2023-07-24T03:10:25;99580.03;;;17.95;100.00
57827;BME280;43656;57.746;11.780;2023-07-24T03:12:50;99554.75;;;17.89;100.00
57827;BME280;43656;57.746;11.780;2023-07-24T03:15:16;99556.63;;;17.99;100.00
57827;BME280;43656;57.746;11.780;2023-07-24T03:17:41;99563.38;;;18.06;100.00
57827;BME280;43656;57.746;11.780;2023-07-24T03:20:15;99557.63;;;18.18;100.00
57827;BME280;43656;57.746;11.780;2023-07-24T03:22:41;99561.97;;;18.19;100.00
57827;BME280;43656;57.746;11.780;2023-07-24T03:25:08;99557.88;;;18.17;100.00
57827;BME280;43656;57.746;11.780;2023-07-24T03:27:34;99548.41;;;18.04;100.00
57827;BME280;43656;57.746;11.780;2023-07-24T03:30:00;99559.53;;;18.13;100.00
57827;BME280;43656;57.746;11.780;2023-07-24T03:32:25;99559.81;;;18.11;100.00
57827;BME280;43656;57.746;11.780;2023-07-24T03:34:51;99553.91;;;17.99;100.00
57827;BME280;43656;57.746;11.780;2023-07-24T03:37:17;99554.50;;;17.86;100.00
57827;BME280;43656;57.746;11.780;2023-07-24T03:39:42;99557.13;;;18.06;100.00
57827;BME280;43656;57.746;11.780;2023-07-24T03:42:11;99551.78;;;17.70;100.00
57827;BME280;43656;57.746;11.780;2023-07-24T03:44:40;99557.50;;;17.69;100.00
57827;BME280;43656;57.746;11.780;2023-07-24T03:47:06;99550.41;;;17.88;100.00
57827;BME280;43656;57.746;11.780;2023-07-24T03:49:31;99551.16;;;17.99;100.00
57827;BME280;43656;57.746;11.780;2023-07-24T03:51:56;99550.97;;;17.85;100.00
57827;BME280;43656;57.746;11.780;2023-07-24T03:54:22;99549.09;;;17.65;100.00
57827;BME280;43656;57.746;11.780;2023-07-24T03:56:47;99543.31;;;17.87;100.00
57827;BME280;43656;57.746;11.780;2023-07-24T03:59:13;99547.38;;;17.95;100.00
57827;BME280;43656;57.746;11.780;2023-07-24T04:01:38;99537.81;;;17.97;100.00
57827;BME280;43656;57.746;11.780;2023-07-24T04:04:04;99545.72;;;17.99;100.00
57827;BME280;43656;57.746;11.780;2023-07-24T04:06:29;99539.13;;;18.10;100.00
57827;BME280;43656;57.746;11.780;2023-07-24T04:08:54;99537.78;;;18.07;100.00
57827;BME280;43656;57.746;11.780;2023-07-24T04:11:22;99533.63;;;18.20;100.00
57827;BME280;43656;57.746;11.780;2023-07-24T04:13:47;99537.72;;;18.23;100.00
57827;BME280;43656;57.746;11.780;2023-07-24T04:16:12;99535.47;;;18.35;100.00
57827;BME280;43656;57.746;11.780;2023-07-24T04:18:38;99531.81;;;18.50;100.00
57827;BME280;43656;57.746;11.780;2023-07-24T04:21:03;99530.13;;;18.59;100.00
57827;BME280;43656;57.746;11.780;2023-07-24T04:23:47;99525.78;;;18.58;100.00
57827;BME280;43656;57.746;11.780;2023-07-24T04:26:13;99523.06;;;18.58;100.00
57827;BME280;43656;57.746;11.780;2023-07-24T04:28:38;99520.41;;;18.48;100.00
57827;BME280;43656;57.746;11.780;2023-07-24T04:31:04;99520.84;;;18.60;100.00
57827;BME280;43656;57.746;11.780;2023-07-24T04:33:29;99514.03;;;18.63;100.00
57827;BME280;43656;57.746;11.780;2023-07-24T04:35:55;99514.53;;;18.70;100.00
57827;BME280;43656;57.746;11.780;2023-07-24T04:38:21;99511.78;;;18.75;100.00
57827;BME280;43656;57.746;11.780;2023-07-24T04:40:46;99507.06;;;18.86;100.00
57827;BME280;43656;57.746;11.780;2023-07-24T04:43:12;99501.31;;;18.87;100.00
57827;BME280;43656;57.746;11.780;2023-07-24T04:45:37;99494.56;;;18.85;100.00
57827;BME280;43656;57.746;11.780;2023-07-24T04:48:03;99481.34;;;18.97;100.00
57827;BME280;43656;57.746;11.780;2023-07-24T04:50:29;99489.47;;;19.02;100.00
57827;BME280;43656;57.746;11.780;2023-07-24T04:52:55;99489.38;;;19.12;100.00
57827;BME280;43656;57.746;11.780;2023-07-24T04:55:21;99483.63;;;19.14;100.00
57827;BME280;43656;57.746;11.780;2023-07-24T04:57:46;99479.75;;;19.20;100.00
57827;BME280;43656;57.746;11.780;2023-07-24T05:00:12;99480.47;;;19.31;100.00
57827;BME280;43656;57.746;11.780;2023-07-24T05:02:39;99478.25;;;19.33;100.00
57827;BME280;43656;57.746;11.780;2023-07-24T05:05:06;99474.69;;;19.37;100.00
57827;BME280;43656;57.746;11.780;2023-07-24T05:07:32;99470.59;;;19.35;100.00
57827;BME280;43656;57.746;11.780;2023-07-24T05:09:58;99474.34;;;19.44;100.00
57827;BME280;43656;57.746;11.780;2023-07-24T05:12:23;99467.41;;;19.52;100.00
57827;BME280;43656;57.746;11.780;2023-07-24T05:14:49;99438.16;;;19.33;100.00
57827;BME280;43656;57.746;11.780;2023-07-24T05:17:14;99466.25;;;19.58;100.00
57827;BME280;43656;57.746;11.780;2023-07-24T05:19:40;99465.94;;;19.59;100.00
57827;BME280;43656;57.746;11.780;2023-07-24T05:22:05;99462.03;;;19.70;100.00
57827;BME280;43656;57.746;11.780;2023-07-24T05:24:31;99465.44;;;19.81;100.00
57827;BME280;43656;57.746;11.780;2023-07-24T05:26:56;99440.78;;;19.86;100.00
57827;BME280;43656;57.746;11.780;2023-07-24T05:29:22;99455.56;;;20.04;100.00
57827;BME280;43656;57.746;11.780;2023-07-24T05:31:47;99460.88;;;20.14;100.00
57827;BME280;43656;57.746;11.780;2023-07-24T05:34:13;99458.69;;;20.16;100.00
57827;BME280;43656;57.746;11.780;2023-07-24T05:36:40;99436.38;;;20.09;100.00
57827;BME280;43656;57.746;11.780;2023-07-24T05:39:05;99460.44;;;20.26;100.00
57827;BME280;43656;57.746;11.780;2023-07-24T05:41:49;99451.28;;;20.36;100.00
57827;BME280;43656;57.746;11.780;2023-07-24T05:44:15;99450.88;;;20.42;100.00
57827;BME280;43656;57.746;11.780;2023-07-24T05:46:40;99448.34;;;20.51;100.00
57827;BME280;43656;57.746;11.780;2023-07-24T05:49:06;99444.47;;;20.52;100.00
57827;BME280;43656;57.746;11.780;2023-07-24T05:51:31;99442.88;;;20.51;100.00
57827;BME280;43656;57.746;11.780;2023-07-24T05:53:56;99448.34;;;20.51;100.00
57827;BME280;43656;57.746;11.780;2023-07-24T05:56:22;99433.91;;;20.46;100.00
57827;BME280;43656;57.746;11.780;2023-07-24T05:58:47;99444.63;;;20.61;100.00
57827;BME280;43656;57.746;11.780;2023-07-24T06:01:12;99445.16;;;20.63;100.00
57827;BME280;43656;57.746;11.780;2023-07-24T06:03:38;99428.44;;;20.64;100.00
57827;BME280;43656;57.746;11.780;2023-07-24T06:06:04;99437.22;;;20.61;100.00
57827;BME280;43656;57.746;11.780;2023-07-24T06:08:30;99418.50;;;20.55;100.00
57827;BME280;43656;57.746;11.780;2023-07-24T06:10:56;99429.94;;;20.57;100.00
57827;BME280;43656;57.746;11.780;2023-07-24T06:13:21;99422.44;;;20.62;100.00
57827;BME280;43656;57.746;11.780;2023-07-24T06:15:47;99427.31;;;20.65;100.00
57827;BME280;43656;57.746;11.780;2023-07-24T06:18:13;99415.47;;;20.56;100.00
57827;BME280;43656;57.746;11.780;2023-07-24T06:20:39;99422.97;;;20.64;100.00
57827;BME280;43656;57.746;11.780;2023-07-24T06:23:04;99421.75;;;20.57;100.00
57827;BME280;43656;57.746;11.780;2023-07-24T06:25:31;99419.22;;;20.60;100.00
57827;BME280;43656;57.746;11.780;2023-07-24T06:27:57;99414.94;;;20.54;100.00
57827;BME280;43656;57.746;11.780;2023-07-24T06:30:22;99422.91;;;20.70;100.00
57827;BME280;43656;57.746;11.780;2023-07-24T06:32:48;99419.03;;;20.71;100.00
57827;BME280;43656;57.746;11.780;2023-07-24T06:35:13;99426.34;;;20.75;100.00
57827;BME280;43656;57.746;11.780;2023-07-24T06:37:39;99410.31;;;20.69;100.00
57827;BME280;43656;57.746;11.780;2023-07-24T06:40:06;99412.78;;;20.84;100.00
57827;BME280;43656;57.746;11.780;2023-07-24T06:42:32;99417.88;;;20.91;100.00
57827;BME280;43656;57.746;11.780;2023-07-24T06:44:57;99417.75;;;20.96;100.00
57827;BME280;43656;57.746;11.780;2023-07-24T06:47:23;99405.72;;;21.10;100.00
57827;BME280;43656;57.746;11.780;2023-07-24T06:49:48;99413.00;;;21.29;100.00
57827;BME280;43656;57.746;11.780;2023-07-24T06:52:14;99414.69;;;21.44;100.00
57827;BME280;43656;57.746;11.780;2023-07-24T06:54:39;99404.72;;;21.62;100.00
57827;BME280;43656;57.746;11.780;2023-07-24T06:57:04;99400.03;;;21.76;100.00
57827;BME280;43656;57.746;11.780;2023-07-24T06:59:30;99395.56;;;21.80;100.00
57827;BME280;43656;57.746;11.780;2023-07-24T07:01:55;99396.00;;;21.73;100.00
57827;BME280;43656;57.746;11.780;2023-07-24T07:04:21;99392.31;;;21.78;100.00
57827;BME280;43656;57.746;11.780;2023-07-24T07:06:46;99384.41;;;21.76;100.00
57827;BME280;43656;57.746;11.780;2023-07-24T07:09:12;99373.16;;;21.78;100.00
57827;BME280;43656;57.746;11.780;2023-07-24T07:11:37;99389.06;;;21.90;100.00
57827;BME280;43656;57.746;11.780;2023-07-24T07:14:04;99384.47;;;21.85;100.00
57827;BME280;43656;57.746;11.780;2023-07-24T07:16:33;99388.25;;;21.89;100.00
57827;BME280;43656;57.746;11.780;2023-07-24T07:18:59;99385.09;;;21.96;100.00
57827;BME280;43656;57.746;11.780;2023-07-24T07:21:24;99384.13;;;22.00;100.00
57827;BME280;43656;57.746;11.780;2023-07-24T07:23:50;99383.00;;;22.01;100.00
57827;BME280;43656;57.746;11.780;2023-07-24T07:26:15;99385.50;;;22.12;100.00
57827;BME280;43656;57.746;11.780;2023-07-24T07:28:41;99384.00;;;22.19;100.00
57827;BME280;43656;57.746;11.780;2023-07-24T07:31:06;99381.00;;;22.30;100.00
57827;BME280;43656;57.746;11.780;2023-07-24T07:33:31;99373.72;;;22.25;100.00
57827;BME280;43656;57.746;11.780;2023-07-24T07:35:57;99383.34;;;22.45;100.00
57827;BME280;43656;57.746;11.780;2023-07-24T07:38:22;99367.34;;;22.61;100.00
57827;BME280;43656;57.746;11.780;2023-07-24T07:40:48;99384.84;;;23.05;100.00
57827;BME280;43656;57.746;11.780;2023-07-24T07:43:13;99368.78;;;22.89;100.00
57827;BME280;43656;57.746;11.780;2023-07-24T07:45:39;99368.09;;;22.84;100.00
57827;BME280;43656;57.746;11.780;2023-07-24T07:48:05;99380.66;;;23.07;100.00
57827;BME280;43656;57.746;11.780;2023-07-24T07:50:30;99384.41;;;23.20;100.00
57827;BME280;43656;57.746;11.780;2023-07-24T07:52:56;99371.03;;;23.27;100.00
57827;BME280;43656;57.746;11.780;2023-07-24T07:55:21;99378.78;;;23.25;100.00
57827;BME280;43656;57.746;11.780;2023-07-24T07:57:47;99357.41;;;23.05;100.00
57827;BME280;43656;57.746;11.780;2023-07-24T08:00:12;99352.44;;;22.84;100.00
57827;BME280;43656;57.746;11.780;2023-07-24T08:02:38;99368.91;;;22.84;100.00
57827;BME280;43656;57.746;11.780;2023-07-24T08:05:10;99368.25;;;22.79;100.00
57827;BME280;43656;57.746;11.780;2023-07-24T08:07:36;99359.00;;;22.74;100.00
57827;BME280;43656;57.746;11.780;2023-07-24T08:10:02;99360.53;;;22.58;100.00
57827;BME280;43656;57.746;11.780;2023-07-24T08:12:28;99349.13;;;22.34;100.00
57827;BME280;43656;57.746;11.780;2023-07-24T08:14:54;99360.69;;;22.31;100.00
57827;BME280;43656;57.746;11.780;2023-07-24T08:17:19;99359.22;;;22.24;100.00
57827;BME280;43656;57.746;11.780;2023-07-24T08:19:45;99357.28;;;22.25;100.00
57827;BME280;43656;57.746;11.780;2023-07-24T08:22:10;99355.66;;;22.24;100.00
57827;BME280;43656;57.746;11.780;2023-07-24T08:24:36;99349.19;;;22.20;100.00
57827;BME280;43656;57.746;11.780;2023-07-24T08:27:01;99361.13;;;22.24;100.00
57827;BME280;43656;57.746;11.780;2023-07-24T08:29:27;99352.00;;;22.15;100.00
57827;BME280;43656;57.746;11.780;2023-07-24T08:31:53;99357.50;;;22.15;100.00
57827;BME280;43656;57.746;11.780;2023-07-24T08:34:18;99359.03;;;22.21;100.00
57827;BME280;43656;57.746;11.780;2023-07-24T08:36:43;99359.53;;;22.23;100.00
57827;BME280;43656;57.746;11.780;2023-07-24T08:39:09;99354.75;;;22.15;100.00
57827;BME280;43656;57.746;11.780;2023-07-24T08:41:34;99343.38;;;21.99;100.00
57827;BME280;43656;57.746;11.780;2023-07-24T08:44:01;99353.75;;;22.11;100.00
57827;BME280;43656;57.746;11.780;2023-07-24T08:46:27;99350.16;;;22.01;100.00
57827;BME280;43656;57.746;11.780;2023-07-24T08:48:54;99344.47;;;21.98;100.00
57827;BME280;43656;57.746;11.780;2023-07-24T08:51:20;99345.59;;;21.97;100.00
57827;BME280;43656;57.746;11.780;2023-07-24T08:53:48;99343.63;;;21.89;100.00
57827;BME280;43656;57.746;11.780;2023-07-24T08:56:14;99333.22;;;21.77;100.00
57827;BME280;43656;57.746;11.780;2023-07-24T08:58:40;99342.53;;;21.76;100.00
57827;BME280;43656;57.746;11.780;2023-07-24T09:01:05;99331.19;;;21.69;100.00
57827;BME280;43656;57.746;11.780;2023-07-24T09:03:32;99340.00;;;21.79;100.00
57827;BME280;43656;57.746;11.780;2023-07-24T09:05:58;99337.44;;;21.83;100.00
57827;BME280;43656;57.746;11.780;2023-07-24T09:08:40;99333.59;;;21.84;100.00
57827;BME280;43656;57.746;11.780;2023-07-24T09:11:07;99334.97;;;21.95;100.00
57827;BME280;43656;57.746;11.780;2023-07-24T09:13:40;99328.31;;;22.10;100.00
57827;BME280;43656;57.746;11.780;2023-07-24T09:16:06;99329.13;;;22.33;100.00
57827;BME280;43656;57.746;11.780;2023-07-24T09:18:42;99328.38;;;22.72;100.00
57827;BME280;43656;57.746;11.780;2023-07-24T09:21:09;99328.00;;;22.96;100.00
57827;BME280;43656;57.746;11.780;2023-07-24T09:23:34;99312.34;;;22.97;100.00
57827;BME280;43656;57.746;11.780;2023-07-24T09:26:05;99313.25;;;23.41;100.00
57827;BME280;43656;57.746;11.780;2023-07-24T09:28:30;99317.22;;;23.75;100.00
57827;BME280;43656;57.746;11.780;2023-07-24T09:30:57;99327.06;;;23.84;100.00
57827;BME280;43656;57.746;11.780;2023-07-24T09:33:41;99323.19;;;23.94;100.00
57827;BME280;43656;57.746;11.780;2023-07-24T09:36:09;99318.19;;;23.87;100.00
57827;BME280;43656;57.746;11.780;2023-07-24T09:38:35;99321.72;;;23.88;100.00
57827;BME280;43656;57.746;11.780;2023-07-24T09:41:02;99320.09;;;23.96;100.00
57827;BME280;43656;57.746;11.780;2023-07-24T09:43:31;99311.38;;;23.85;100.00
57827;BME280;43656;57.746;11.780;2023-07-24T09:45:57;99324.91;;;23.64;100.00
57827;BME280;43656;57.746;11.780;2023-07-24T09:48:24;99320.03;;;23.43;100.00
57827;BME280;43656;57.746;11.780;2023-07-24T09:50:55;99325.53;;;23.43;100.00
57827;BME280;43656;57.746;11.780;2023-07-24T09:53:29;99319.41;;;23.55;100.00
57827;BME280;43656;57.746;11.780;2023-07-24T09:56:08;99268.19;;;23.33;100.00
57827;BME280;43656;57.746;11.780;2023-07-24T09:58:38;99322.47;;;23.54;100.00
57827;BME280;43656;57.746;11.780;2023-07-24T10:01:08;99320.72;;;23.66;100.00
57827;BME280;43656;57.746;11.780;2023-07-24T10:03:37;99324.25;;;23.67;100.00
57827;BME280;43656;57.746;11.780;2023-07-24T10:06:04;99317.69;;;23.85;100.00
57827;BME280;43656;57.746;11.780;2023-07-24T10:08:30;99315.91;;;23.98;100.00
57827;BME280;43656;57.746;11.780;2023-07-24T10:10:58;99315.72;;;24.03;100.00
57827;BME280;43656;57.746;11.780;2023-07-24T10:13:26;99311.03;;;24.04;100.00
57827;BME280;43656;57.746;11.780;2023-07-24T10:15:52;99302.28;;;24.19;100.00
57827;BME280;43656;57.746;11.780;2023-07-24T10:18:26;99308.72;;;24.23;100.00
57827;BME280;43656;57.746;11.780;2023-07-24T10:21:00;99300.78;;;24.39;100.00
57827;BME280;43656;57.746;11.780;2023-07-24T10:23:26;99307.09;;;24.39;100.00
57827;BME280;43656;57.746;11.780;2023-07-24T10:25:52;99310.47;;;24.36;100.00
57827;BME280;43656;57.746;11.780;2023-07-24T10:28:18;99304.19;;;24.36;100.00
57827;BME280;43656;57.746;11.780;2023-07-24T10:30:44;99286.75;;;24.41;100.00
57827;BME280;43656;57.746;11.780;2023-07-24T10:33:12;99301.25;;;24.50;100.00
57827;BME280;43656;57.746;11.780;2023-07-24T10:38:07;99291.84;;;24.59;100.00
57827;BME280;43656;57.746;11.780;2023-07-24T10:40:33;99262.00;;;24.32;100.00
57827;BME280;43656;57.746;11.780;2023-07-24T10:43:17;99292.22;;;24.49;100.00
57827;BME280;43656;57.746;11.780;2023-07-24T10:45:50;99283.44;;;24.56;100.00
57827;BME280;43656;57.746;11.780;2023-07-24T10:48:18;99282.84;;;24.33;100.00
57827;BME280;43656;57.746;11.780;2023-07-24T10:50:46;99275.75;;;24.23;100.00
57827;BME280;43656;57.746;11.780;2023-07-24T10:53:14;99285.53;;;23.86;100.00
57827;BME280;43656;57.746;11.780;2023-07-24T10:55:43;99274.38;;;23.65;100.00
57827;BME280;43656;57.746;11.780;2023-07-24T10:58:10;99291.66;;;23.65;100.00
57827;BME280;43656;57.746;11.780;2023-07-24T11:00:36;99268.38;;;23.45;100.00
57827;BME280;43656;57.746;11.780;2023-07-24T11:03:03;99286.31;;;23.60;100.00
57827;BME280;43656;57.746;11.780;2023-07-24T11:05:28;99287.75;;;23.66;100.00
57827;BME280;43656;57.746;11.780;2023-07-24T11:07:55;99264.81;;;23.54;100.00
57827;BME280;43656;57.746;11.780;2023-07-24T11:10:21;99290.53;;;23.58;100.00
57827;BME280;43656;57.746;11.780;2023-07-24T11:12:47;99272.56;;;23.34;100.00
57827;BME280;43656;57.746;11.780;2023-07-24T11:15:14;99291.63;;;23.39;100.00
57827;BME280;43656;57.746;11.780;2023-07-24T11:17:41;99266.41;;;23.20;100.00
57827;BME280;43656;57.746;11.780;2023-07-24T11:20:12;99285.19;;;23.53;100.00
57827;BME280;43656;57.746;11.780;2023-07-24T11:22:47;99291.66;;;23.65;100.00
57827;BME280;43656;57.746;11.780;2023-07-24T11:25:12;99282.47;;;23.87;100.00
57827;BME280;43656;57.746;11.780;2023-07-24T11:27:40;99263.69;;;23.98;100.00
57827;BME280;43656;57.746;11.780;2023-07-24T11:30:07;99267.19;;;24.25;100.00
57827;BME280;43656;57.746;11.780;2023-07-24T11:32:33;99255.03;;;24.34;99.90
57827;BME280;43656;57.746;11.780;2023-07-24T11:34:59;99268.41;;;24.53;99.18
57827;BME280;43656;57.746;11.780;2023-07-24T11:37:25;99288.53;;;24.83;98.14
57827;BME280;43656;57.746;11.780;2023-07-24T11:39:58;99272.63;;;24.89;97.34
57827;BME280;43656;57.746;11.780;2023-07-24T11:42:25;99276.88;;;24.78;95.56
57827;BME280;43656;57.746;11.780;2023-07-24T11:44:51;99271.78;;;24.59;95.17
57827;BME280;43656;57.746;11.780;2023-07-24T11:47:16;99278.59;;;24.53;94.89
57827;BME280;43656;57.746;11.780;2023-07-24T11:49:42;99276.09;;;24.77;94.27
57827;BME280;43656;57.746;11.780;2023-07-24T11:52:14;99277.97;;;24.85;93.60
57827;BME280;43656;57.746;11.780;2023-07-24T11:54:40;99277.69;;;25.17;92.74
57827;BME280;43656;57.746;11.780;2023-07-24T11:57:15;99285.81;;;25.34;92.50
57827;BME280;43656;57.746;11.780;2023-07-24T11:59:41;99276.13;;;25.28;91.76
57827;BME280;43656;57.746;11.780;2023-07-24T12:02:10;99277.22;;;25.36;91.54
57827;BME280;43656;57.746;11.780;2023-07-24T12:04:37;99284.44;;;25.19;89.67
57827;BME280;43656;57.746;11.780;2023-07-24T12:07:08;99269.25;;;25.13;89.86
57827;BME280;43656;57.746;11.780;2023-07-24T12:09:33;99281.09;;;25.14;89.49
57827;BME280;43656;57.746;11.780;2023-07-24T12:11:59;99288.00;;;25.20;89.85
57827;BME280;43656;57.746;11.780;2023-07-24T12:14:24;99292.03;;;25.22;89.54
57827;BME280;43656;57.746;11.780;2023-07-24T12:17:00;99287.19;;;25.19;89.51
57827;BME280;43656;57.746;11.780;2023-07-24T12:19:26;99293.22;;;25.13;89.93
57827;BME280;43656;57.746;11.780;2023-07-24T12:21:52;99284.13;;;25.42;88.88
57827;BME280;43656;57.746;11.780;2023-07-24T12:24:17;99263.03;;;25.46;88.64
57827;BME280;43656;57.746;11.780;2023-07-24T12:26:43;99269.91;;;25.40;87.62
57827;BME280;43656;57.746;11.780;2023-07-24T12:29:08;99275.88;;;25.63;86.29
57827;BME280;43656;57.746;11.780;2023-07-24T12:31:33;99275.88;;;25.63;86.36
57827;BME280;43656;57.746;11.780;2023-07-24T12:33:59;99274.25;;;25.62;86.30
57827;BME280;43656;57.746;11.780;2023-07-24T12:36:24;99274.06;;;25.46;86.67
57827;BME280;43656;57.746;11.780;2023-07-24T12:38:50;99261.97;;;25.38;86.62
57827;BME280;43656;57.746;11.780;2023-07-24T12:41:15;99264.72;;;25.38;86.42